sensor_id;sensor_type;location;lat;lon;timestamp;temperature;humidity
1381;DHT22;684;48.342;10.096;2024-03-02T00:00:28;7.20;32.80
1381;DHT22;684;48.342;10.096;2024-03-02T00:02:55;7.20;32.80
1381;DHT22;684;48.342;10.096;2024-03-02T00:05:23;7.20;32.80
1381;DHT22;684;48.342;10.096;2024-03-02T00:07:53;7.10;32.80
1381;DHT22;684;48.342;10.096;2024-03-02T00:10:23;7.20;32.80
1381;DHT22;684;48.342;10.096;2024-03-02T00:12:54;7.10;32.70
1381;DHT22;684;48.342;10.096;2024-03-02T00:15:40;7.10;32.70
1381;DHT22;684;48.342;10.096;2024-03-02T00:18:09;7.20;32.80
1381;DHT22;684;48.342;10.096;2024-03-02T00:20:38;7.10;32.50
1381;DHT22;684;48.342;10.096;2024-03-02T00:23:07;7.20;32.50
1381;DHT22;684;48.342;10.096;2024-03-02T00:25:37;7.10;32.50
1381;DHT22;684;48.342;10.096;2024-03-02T00:28:05;7.10;32.50
1381;DHT22;684;48.342;10.096;2024-03-02T00:30:51;7.20;32.50
1381;DHT22;684;48.342;10.096;2024-03-02T00:33:19;7.10;32.60
1381;DHT22;684;48.342;10.096;2024-03-02T00:35:47;7.10;32.40
1381;DHT22;684;48.342;10.096;2024-03-02T00:38:15;7.10;32.30
1381;DHT22;684;48.342;10.096;2024-03-02T00:40:42;7.10;32.40
1381;DHT22;684;48.342;10.096;2024-03-02T00:43:18;7.10;32.30
1381;DHT22;684;48.342;10.096;2024-03-02T00:45:47;7.20;32.30
1381;DHT22;684;48.342;10.096;2024-03-02T00:48:15;7.10;32.20
1381;DHT22;684;48.342;10.096;2024-03-02T00:50:42;7.10;32.20
1381;DHT22;684;48.342;10.096;2024-03-02T00:53:11;7.10;32.10
1381;DHT22;684;48.342;10.096;2024-03-02T00:55:39;7.10;32.10
1381;DHT22;684;48.342;10.096;2024-03-02T00:58:09;7.20;32.10
1381;DHT22;684;48.342;10.096;2024-03-02T01:00:36;7.30;32.20
1381;DHT22;684;48.342;10.096;2024-03-02T01:03:03;7.20;32.10
1381;DHT22;684;48.342;10.096;2024-03-02T01:05:30;7.20;31.90
1381;DHT22;684;48.342;10.096;2024-03-02T01:07:57;7.20;31.90
1381;DHT22;684;48.342;10.096;2024-03-02T01:10:25;7.20;31.90
1381;DHT22;684;48.342;10.096;2024-03-02T01:12:52;7.20;31.70
1381;DHT22;684;48.342;10.096;2024-03-02T01:15:19;7.20;31.90
1381;DHT22;684;48.342;10.096;2024-03-02T01:17:46;7.20;31.70
1381;DHT22;684;48.342;10.096;2024-03-02T01:20:13;7.20;31.70
1381;DHT22;684;48.342;10.096;2024-03-02T01:22:40;7.20;31.80
1381;DHT22;684;48.342;10.096;2024-03-02T01:25:08;7.20;31.80
1381;DHT22;684;48.342;10.096;2024-03-02T01:27:36;7.10;31.70
1381;DHT22;684;48.342;10.096;2024-03-02T01:30:04;7.10;31.90
1381;DHT22;684;48.342;10.096;2024-03-02T01:32:31;7.10;31.90
1381;DHT22;684;48.342;10.096;2024-03-02T01:34:58;7.10;31.90
1381;DHT22;684;48.342;10.096;2024-03-02T01:37:25;7.10;31.80
1381;DHT22;684;48.342;10.096;2024-03-02T01:39:51;7.10;31.80
1381;DHT22;684;48.342;10.096;2024-03-02T01:42:18;7.10;31.80
1381;DHT22;684;48.342;10.096;2024-03-02T01:44:46;7.10;31.80
1381;DHT22;684;48.342;10.096;2024-03-02T01:47:13;7.10;31.90
1381;DHT22;684;48.342;10.096;2024-03-02T01:49:40;7.10;31.80
1381;DHT22;684;48.342;10.096;2024-03-02T01:52:07;7.10;31.90
1381;DHT22;684;48.342;10.096;2024-03-02T01:54:34;7.10;31.80
1381;DHT22;684;48.342;10.096;2024-03-02T01:57:01;7.10;31.80
1381;DHT22;684;48.342;10.096;2024-03-02T01:59:28;7.10;31.80
1381;DHT22;684;48.342;10.096;2024-03-02T02:01:56;7.10;31.80
1381;DHT22;684;48.342;10.096;2024-03-02T02:04:24;7.10;31.90
1381;DHT22;684;48.342;10.096;2024-03-02T02:06:53;7.10;31.80
1381;DHT22;684;48.342;10.096;2024-03-02T02:09:20;7.10;31.80
1381;DHT22;684;48.342;10.096;2024-03-02T02:11:47;7.10;31.70
1381;DHT22;684;48.342;10.096;2024-03-02T02:14:14;7.30;31.90
1381;DHT22;684;48.342;10.096;2024-03-02T02:16:41;7.10;31.80
1381;DHT22;684;48.342;10.096;2024-03-02T02:19:09;7.10;31.80
1381;DHT22;684;48.342;10.096;2024-03-02T02:21:37;7.10;31.90
1381;DHT22;684;48.342;10.096;2024-03-02T02:24:04;7.00;31.90
1381;DHT22;684;48.342;10.096;2024-03-02T02:26:32;7.00;31.90
1381;DHT22;684;48.342;10.096;2024-03-02T02:28:59;7.00;31.90
1381;DHT22;684;48.342;10.096;2024-03-02T02:31:26;7.00;32.00
1381;DHT22;684;48.342;10.096;2024-03-02T02:33:53;7.00;32.00
1381;DHT22;684;48.342;10.096;2024-03-02T02:36:20;7.00;31.90
1381;DHT22;684;48.342;10.096;2024-03-02T02:38:50;7.00;32.00
1381;DHT22;684;48.342;10.096;2024-03-02T02:41:17;7.00;31.90
1381;DHT22;684;48.342;10.096;2024-03-02T02:43:44;7.00;31.80
1381;DHT22;684;48.342;10.096;2024-03-02T02:46:10;7.00;31.80
1381;DHT22;684;48.342;10.096;2024-03-02T02:48:37;7.00;31.80
1381;DHT22;684;48.342;10.096;2024-03-02T02:51:04;7.00;31.70
1381;DHT22;684;48.342;10.096;2024-03-02T02:53:31;7.00;31.70
1381;DHT22;684;48.342;10.096;2024-03-02T02:55:59;7.00;31.70
1381;DHT22;684;48.342;10.096;2024-03-02T02:58:26;7.00;31.70
1381;DHT22;684;48.342;10.096;2024-03-02T03:00:53;7.00;31.60
1381;DHT22;684;48.342;10.096;2024-03-02T03:03:22;6.90;31.60
1381;DHT22;684;48.342;10.096;2024-03-02T03:05:49;7.00;31.50
1381;DHT22;684;48.342;10.096;2024-03-02T03:08:15;6.90;31.50
1381;DHT22;684;48.342;10.096;2024-03-02T03:10:42;6.90;31.50
1381;DHT22;684;48.342;10.096;2024-03-02T03:13:11;6.90;31.40
1381;DHT22;684;48.342;10.096;2024-03-02T03:15:38;6.90;31.40
1381;DHT22;684;48.342;10.096;2024-03-02T03:18:05;6.90;31.50
1381;DHT22;684;48.342;10.096;2024-03-02T03:20:31;6.90;31.40
1381;DHT22;684;48.342;10.096;2024-03-02T03:22:59;6.80;31.10
1381;DHT22;684;48.342;10.096;2024-03-02T03:25:26;6.80;31.20
1381;DHT22;684;48.342;10.096;2024-03-02T03:27:52;6.80;31.20
1381;DHT22;684;48.342;10.096;2024-03-02T03:30:20;6.70;31.40
1381;DHT22;684;48.342;10.096;2024-03-02T03:32:46;6.70;31.50
1381;DHT22;684;48.342;10.096;2024-03-02T03:35:14;6.70;31.50
1381;DHT22;684;48.342;10.096;2024-03-02T03:37:41;6.70;31.50
1381;DHT22;684;48.342;10.096;2024-03-02T03:40:08;6.70;31.50
1381;DHT22;684;48.342;10.096;2024-03-02T03:42:36;6.60;31.30
1381;DHT22;684;48.342;10.096;2024-03-02T03:45:03;6.60;31.60
1381;DHT22;684;48.342;10.096;2024-03-02T03:47:33;6.60;31.70
1381;DHT22;684;48.342;10.096;2024-03-02T03:49:59;6.50;31.80
1381;DHT22;684;48.342;10.096;2024-03-02T03:52:26;6.50;31.90
1381;DHT22;684;48.342;10.096;2024-03-02T03:54:53;6.50;31.90
1381;DHT22;684;48.342;10.096;2024-03-02T03:57:20;6.50;32.10
1381;DHT22;684;48.342;10.096;2024-03-02T03:59:47;6.40;31.90
1381;DHT22;684;48.342;10.096;2024-03-02T04:02:13;6.40;31.90
1381;DHT22;684;48.342;10.096;2024-03-02T04:04:42;6.40;32.10
1381;DHT22;684;48.342;10.096;2024-03-02T04:07:09;6.30;32.20
1381;DHT22;684;48.342;10.096;2024-03-02T04:09:35;6.30;32.30
1381;DHT22;684;48.342;10.096;2024-03-02T04:12:03;6.20;32.60
1381;DHT22;684;48.342;10.096;2024-03-02T04:14:29;6.20;32.60
1381;DHT22;684;48.342;10.096;2024-03-02T04:16:56;6.20;32.80
1381;DHT22;684;48.342;10.096;2024-03-02T04:19:23;6.20;32.90
1381;DHT22;684;48.342;10.096;2024-03-02T04:21:51;6.20;32.90
1381;DHT22;684;48.342;10.096;2024-03-02T04:24:18;6.20;32.90
1381;DHT22;684;48.342;10.096;2024-03-02T04:26:45;6.10;33.10
1381;DHT22;684;48.342;10.096;2024-03-02T04:29:11;6.10;33.10
1381;DHT22;684;48.342;10.096;2024-03-02T04:31:38;6.00;33.20
1381;DHT22;684;48.342;10.096;2024-03-02T04:34:05;6.10;33.40
1381;DHT22;684;48.342;10.096;2024-03-02T04:36:32;6.10;33.40
1381;DHT22;684;48.342;10.096;2024-03-02T04:39:00;6.10;33.60
1381;DHT22;684;48.342;10.096;2024-03-02T04:41:26;6.00;33.60
1381;DHT22;684;48.342;10.096;2024-03-02T04:43:53;6.10;33.50
1381;DHT22;684;48.342;10.096;2024-03-02T04:46:20;6.00;33.40
1381;DHT22;684;48.342;10.096;2024-03-02T04:48:47;6.00;33.40
1381;DHT22;684;48.342;10.096;2024-03-02T04:51:20;6.10;33.40
1381;DHT22;684;48.342;10.096;2024-03-02T04:53:47;6.00;33.10
1381;DHT22;684;48.342;10.096;2024-03-02T04:56:15;6.00;33.20
1381;DHT22;684;48.342;10.096;2024-03-02T04:59:05;6.00;32.90
1381;DHT22;684;48.342;10.096;2024-03-02T05:01:32;6.00;32.70
1381;DHT22;684;48.342;10.096;2024-03-02T05:04:00;6.00;32.60
1381;DHT22;684;48.342;10.096;2024-03-02T05:06:26;6.00;32.50
1381;DHT22;684;48.342;10.096;2024-03-02T05:08:53;6.00;32.40
1381;DHT22;684;48.342;10.096;2024-03-02T05:11:21;6.00;32.30
1381;DHT22;684;48.342;10.096;2024-03-02T05:14:06;6.00;32.30
1381;DHT22;684;48.342;10.096;2024-03-02T05:16:33;6.00;32.20
1381;DHT22;684;48.342;10.096;2024-03-02T05:19:00;6.00;32.10
1381;DHT22;684;48.342;10.096;2024-03-02T05:21:27;6.00;32.20
1381;DHT22;684;48.342;10.096;2024-03-02T05:23:54;6.00;32.20
1381;DHT22;684;48.342;10.096;2024-03-02T05:26:22;6.00;32.10
1381;DHT22;684;48.342;10.096;2024-03-02T05:28:48;6.00;32.10
1381;DHT22;684;48.342;10.096;2024-03-02T05:31:15;6.00;32.10
1381;DHT22;684;48.342;10.096;2024-03-02T05:33:42;6.00;32.10
1381;DHT22;684;48.342;10.096;2024-03-02T05:36:09;6.00;31.90
1381;DHT22;684;48.342;10.096;2024-03-02T05:38:36;6.00;32.00
1381;DHT22;684;48.342;10.096;2024-03-02T05:41:03;6.10;32.00
1381;DHT22;684;48.342;10.096;2024-03-02T05:43:31;6.10;32.00
1381;DHT22;684;48.342;10.096;2024-03-02T05:45:58;6.00;32.10
1381;DHT22;684;48.342;10.096;2024-03-02T05:48:25;6.00;32.30
1381;DHT22;684;48.342;10.096;2024-03-02T05:50:52;6.00;32.30
1381;DHT22;684;48.342;10.096;2024-03-02T05:53:18;6.00;32.40
1381;DHT22;684;48.342;10.096;2024-03-02T05:55:45;5.90;32.40
1381;DHT22;684;48.342;10.096;2024-03-02T05:58:12;6.00;32.20
1381;DHT22;684;48.342;10.096;2024-03-02T06:00:54;6.00;32.40
1381;DHT22;684;48.342;10.096;2024-03-02T06:03:21;6.00;32.40
1381;DHT22;684;48.342;10.096;2024-03-02T06:05:48;6.00;32.30
1381;DHT22;684;48.342;10.096;2024-03-02T06:08:15;6.00;32.40
1381;DHT22;684;48.342;10.096;2024-03-02T06:10:42;6.00;32.40
1381;DHT22;684;48.342;10.096;2024-03-02T06:13:09;6.00;32.40
1381;DHT22;684;48.342;10.096;2024-03-02T06:15:36;6.10;32.40
1381;DHT22;684;48.342;10.096;2024-03-02T06:18:05;6.10;32.30
1381;DHT22;684;48.342;10.096;2024-03-02T06:20:33;6.00;32.30
1381;DHT22;684;48.342;10.096;2024-03-02T06:23:00;6.10;32.40
1381;DHT22;684;48.342;10.096;2024-03-02T06:25:26;6.10;32.20
1381;DHT22;684;48.342;10.096;2024-03-02T06:27:53;6.20;32.30
1381;DHT22;684;48.342;10.096;2024-03-02T06:30:20;6.20;32.30
1381;DHT22;684;48.342;10.096;2024-03-02T06:32:47;6.20;32.30
1381;DHT22;684;48.342;10.096;2024-03-02T06:35:15;6.20;32.40
1381;DHT22;684;48.342;10.096;2024-03-02T06:37:42;6.20;32.40
1381;DHT22;684;48.342;10.096;2024-03-02T06:40:09;6.30;32.50
1381;DHT22;684;48.342;10.096;2024-03-02T06:42:36;6.30;32.40
1381;DHT22;684;48.342;10.096;2024-03-02T06:45:03;6.40;32.40
1381;DHT22;684;48.342;10.096;2024-03-02T06:47:30;6.50;32.50
1381;DHT22;684;48.342;10.096;2024-03-02T06:49:57;6.60;32.40
1381;DHT22;684;48.342;10.096;2024-03-02T06:52:25;6.60;32.30
1381;DHT22;684;48.342;10.096;2024-03-02T06:54:52;6.60;32.30
1381;DHT22;684;48.342;10.096;2024-03-02T06:57:19;6.60;32.20
1381;DHT22;684;48.342;10.096;2024-03-02T06:59:46;6.60;32.20
1381;DHT22;684;48.342;10.096;2024-03-02T07:02:14;6.70;32.20
1381;DHT22;684;48.342;10.096;2024-03-02T07:04:41;6.70;32.20
1381;DHT22;684;48.342;10.096;2024-03-02T07:07:07;6.80;32.10
1381;DHT22;684;48.342;10.096;2024-03-02T07:09:35;6.90;31.90
1381;DHT22;684;48.342;10.096;2024-03-02T07:12:02;7.00;31.60
1381;DHT22;684;48.342;10.096;2024-03-02T07:14:30;7.00;31.60
1381;DHT22;684;48.342;10.096;2024-03-02T07:17:10;7.00;32.10
1381;DHT22;684;48.342;10.096;2024-03-02T07:19:38;7.10;31.50
1381;DHT22;684;48.342;10.096;2024-03-02T07:22:06;7.10;31.20
1381;DHT22;684;48.342;10.096;2024-03-02T07:24:40;7.20;31.20
1381;DHT22;684;48.342;10.096;2024-03-02T07:27:07;7.20;31.20
1381;DHT22;684;48.342;10.096;2024-03-02T07:29:34;7.20;31.00
1381;DHT22;684;48.342;10.096;2024-03-02T07:32:01;7.30;31.10
1381;DHT22;684;48.342;10.096;2024-03-02T07:34:28;7.30;31.00
1381;DHT22;684;48.342;10.096;2024-03-02T07:36:55;7.30;30.90
1381;DHT22;684;48.342;10.096;2024-03-02T07:39:22;7.40;30.80
1381;DHT22;684;48.342;10.096;2024-03-02T07:41:50;7.40;30.60
1381;DHT22;684;48.342;10.096;2024-03-02T07:44:17;7.50;30.60
1381;DHT22;684;48.342;10.096;2024-03-02T07:46:45;7.50;30.60
1381;DHT22;684;48.342;10.096;2024-03-02T07:49:13;7.60;30.40
1381;DHT22;684;48.342;10.096;2024-03-02T07:51:40;7.60;30.30
1381;DHT22;684;48.342;10.096;2024-03-02T07:54:07;7.70;30.10
1381;DHT22;684;48.342;10.096;2024-03-02T07:56:34;7.70;30.00
1381;DHT22;684;48.342;10.096;2024-03-02T07:59:02;7.80;29.70
1381;DHT22;684;48.342;10.096;2024-03-02T08:01:30;7.80;29.60
1381;DHT22;684;48.342;10.096;2024-03-02T08:03:57;7.90;28.90
1381;DHT22;684;48.342;10.096;2024-03-02T08:06:24;8.00;28.50
1381;DHT22;684;48.342;10.096;2024-03-02T08:08:53;8.10;28.50
1381;DHT22;684;48.342;10.096;2024-03-02T08:11:20;8.10;28.20
1381;DHT22;684;48.342;10.096;2024-03-02T08:13:47;8.10;28.00
1381;DHT22;684;48.342;10.096;2024-03-02T08:16:15;8.10;27.90
1381;DHT22;684;48.342;10.096;2024-03-02T08:18:45;8.20;27.90
1381;DHT22;684;48.342;10.096;2024-03-02T08:21:12;8.20;27.90
1381;DHT22;684;48.342;10.096;2024-03-02T08:23:39;8.30;27.90
1381;DHT22;684;48.342;10.096;2024-03-02T08:26:06;8.30;27.60
1381;DHT22;684;48.342;10.096;2024-03-02T08:28:33;8.40;27.60
1381;DHT22;684;48.342;10.096;2024-03-02T08:31:00;8.40;27.30
1381;DHT22;684;48.342;10.096;2024-03-02T08:33:28;8.50;27.10
1381;DHT22;684;48.342;10.096;2024-03-02T08:35:55;8.60;26.70
1381;DHT22;684;48.342;10.096;2024-03-02T08:38:22;8.70;26.50
1381;DHT22;684;48.342;10.096;2024-03-02T08:40:50;8.80;26.10
1381;DHT22;684;48.342;10.096;2024-03-02T08:43:17;9.00;25.90
1381;DHT22;684;48.342;10.096;2024-03-02T08:45:45;9.10;25.50
1381;DHT22;684;48.342;10.096;2024-03-02T08:48:12;9.10;25.10
1381;DHT22;684;48.342;10.096;2024-03-02T08:50:41;9.20;24.80
1381;DHT22;684;48.342;10.096;2024-03-02T08:53:07;9.20;24.30
1381;DHT22;684;48.342;10.096;2024-03-02T08:55:34;9.20;24.20
1381;DHT22;684;48.342;10.096;2024-03-02T08:58:01;9.30;24.00
1381;DHT22;684;48.342;10.096;2024-03-02T09:00:28;9.30;23.80
1381;DHT22;684;48.342;10.096;2024-03-02T09:02:55;9.30;23.60
1381;DHT22;684;48.342;10.096;2024-03-02T09:05:21;9.30;23.40
1381;DHT22;684;48.342;10.096;2024-03-02T09:07:49;9.30;23.20
1381;DHT22;684;48.342;10.096;2024-03-02T09:10:16;9.30;23.00
1381;DHT22;684;48.342;10.096;2024-03-02T09:12:43;9.30;23.10
1381;DHT22;684;48.342;10.096;2024-03-02T09:15:10;9.40;22.90
1381;DHT22;684;48.342;10.096;2024-03-02T09:17:37;9.50;23.00
1381;DHT22;684;48.342;10.096;2024-03-02T09:20:04;9.50;22.50
1381;DHT22;684;48.342;10.096;2024-03-02T09:22:31;9.60;22.30
1381;DHT22;684;48.342;10.096;2024-03-02T09:24:59;9.60;22.10
1381;DHT22;684;48.342;10.096;2024-03-02T09:27:26;9.70;22.20
1381;DHT22;684;48.342;10.096;2024-03-02T09:29:53;9.70;22.10
1381;DHT22;684;48.342;10.096;2024-03-02T09:32:20;9.80;21.70
1381;DHT22;684;48.342;10.096;2024-03-02T09:34:46;10.00;21.60
1381;DHT22;684;48.342;10.096;2024-03-02T09:37:14;10.10;21.20
1381;DHT22;684;48.342;10.096;2024-03-02T09:39:43;10.20;20.70
1381;DHT22;684;48.342;10.096;2024-03-02T09:42:12;10.20;20.60
1381;DHT22;684;48.342;10.096;2024-03-02T09:44:40;10.40;20.60
1381;DHT22;684;48.342;10.096;2024-03-02T09:47:07;10.50;20.40
1381;DHT22;684;48.342;10.096;2024-03-02T09:49:34;10.50;20.00
1381;DHT22;684;48.342;10.096;2024-03-02T09:52:03;10.60;19.50
1381;DHT22;684;48.342;10.096;2024-03-02T09:54:31;10.80;19.30
1381;DHT22;684;48.342;10.096;2024-03-02T09:56:58;11.00;18.90
1381;DHT22;684;48.342;10.096;2024-03-02T09:59:28;11.20;18.70
1381;DHT22;684;48.342;10.096;2024-03-02T10:01:59;11.20;18.00
1381;DHT22;684;48.342;10.096;2024-03-02T10:04:26;11.60;18.50
1381;DHT22;684;48.342;10.096;2024-03-02T10:07:09;12.70;18.00
1381;DHT22;684;48.342;10.096;2024-03-02T10:09:37;14.80;15.40
1381;DHT22;684;48.342;10.096;2024-03-02T10:12:05;17.30;10.40
1381;DHT22;684;48.342;10.096;2024-03-02T10:14:33;19.30;5.70
1381;DHT22;684;48.342;10.096;2024-03-02T10:17:04;20.60;1.00
1381;DHT22;684;48.342;10.096;2024-03-02T10:19:32;21.10;1.00
1381;DHT22;684;48.342;10.096;2024-03-02T10:22:01;21.20;1.00
1381;DHT22;684;48.342;10.096;2024-03-02T10:24:35;21.40;1.00
1381;DHT22;684;48.342;10.096;2024-03-02T10:27:07;21.30;1.00
1381;DHT22;684;48.342;10.096;2024-03-02T10:29:36;20.80;1.00
1381;DHT22;684;48.342;10.096;2024-03-02T10:32:04;20.60;1.00
1381;DHT22;684;48.342;10.096;2024-03-02T10:34:32;20.60;1.00
1381;DHT22;684;48.342;10.096;2024-03-02T10:36:59;21.20;1.00
1381;DHT22;684;48.342;10.096;2024-03-02T10:39:27;21.60;1.00
1381;DHT22;684;48.342;10.096;2024-03-02T10:41:55;21.50;1.00
1381;DHT22;684;48.342;10.096;2024-03-02T10:44:23;20.70;1.00
1381;DHT22;684;48.342;10.096;2024-03-02T10:46:52;20.80;1.00
1381;DHT22;684;48.342;10.096;2024-03-02T10:49:20;20.90;1.00
1381;DHT22;684;48.342;10.096;2024-03-02T10:51:49;20.70;1.00
1381;DHT22;684;48.342;10.096;2024-03-02T10:54:16;20.60;1.00
1381;DHT22;684;48.342;10.096;2024-03-02T10:56:45;20.30;1.00
1381;DHT22;684;48.342;10.096;2024-03-02T10:59:17;20.30;1.00
1381;DHT22;684;48.342;10.096;2024-03-02T11:01:48;20.20;1.00
1381;DHT22;684;48.342;10.096;2024-03-02T11:04:18;20.00;1.00
1381;DHT22;684;48.342;10.096;2024-03-02T11:06:48;19.80;1.00
1381;DHT22;684;48.342;10.096;2024-03-02T11:09:17;19.70;1.00
1381;DHT22;684;48.342;10.096;2024-03-02T11:11:49;19.50;1.00
1381;DHT22;684;48.342;10.096;2024-03-02T11:14:23;19.50;1.00
1381;DHT22;684;48.342;10.096;2024-03-02T11:16:51;19.40;1.00
1381;DHT22;684;48.342;10.096;2024-03-02T11:19:21;19.60;1.00
1381;DHT22;684;48.342;10.096;2024-03-02T11:21:50;19.90;1.00
1381;DHT22;684;48.342;10.096;2024-03-02T11:24:33;20.10;1.00
1381;DHT22;684;48.342;10.096;2024-03-02T11:27:00;20.10;1.00
1381;DHT22;684;48.342;10.096;2024-03-02T11:29:48;20.00;1.00
1381;DHT22;684;48.342;10.096;2024-03-02T11:32:17;20.10;1.00
1381;DHT22;684;48.342;10.096;2024-03-02T11:34:46;20.20;1.00
1381;DHT22;684;48.342;10.096;2024-03-02T11:37:15;20.20;1.00
1381;DHT22;684;48.342;10.096;2024-03-02T11:39:44;20.40;1.00
1381;DHT22;684;48.342;10.096;2024-03-02T11:42:11;20.70;1.00
1381;DHT22;684;48.342;10.096;2024-03-02T11:44:42;20.80;1.00
1381;DHT22;684;48.342;10.096;2024-03-02T11:47:11;21.00;1.00
1381;DHT22;684;48.342;10.096;2024-03-02T11:49:42;21.30;1.00
1381;DHT22;684;48.342;10.096;2024-03-02T11:52:13;21.50;1.00
1381;DHT22;684;48.342;10.096;2024-03-02T11:54:41;21.70;1.00
1381;DHT22;684;48.342;10.096;2024-03-02T11:57:12;21.90;1.00
1381;DHT22;684;48.342;10.096;2024-03-02T11:59:39;22.10;1.00
1381;DHT22;684;48.342;10.096;2024-03-02T12:02:06;22.30;1.00
1381;DHT22;684;48.342;10.096;2024-03-02T12:04:34;22.50;1.00
1381;DHT22;684;48.342;10.096;2024-03-02T12:07:01;22.60;1.00
1381;DHT22;684;48.342;10.096;2024-03-02T12:09:29;22.80;1.00
1381;DHT22;684;48.342;10.096;2024-03-02T12:12:06;23.00;1.00
1381;DHT22;684;48.342;10.096;2024-03-02T12:14:34;23.20;1.00
1381;DHT22;684;48.342;10.096;2024-03-02T12:17:02;23.30;1.00
1381;DHT22;684;48.342;10.096;2024-03-02T12:19:30;23.30;1.00
1381;DHT22;684;48.342;10.096;2024-03-02T12:21:57;23.50;1.00
1381;DHT22;684;48.342;10.096;2024-03-02T12:24:26;23.80;1.00
1381;DHT22;684;48.342;10.096;2024-03-02T12:26:54;23.80;1.00
1381;DHT22;684;48.342;10.096;2024-03-02T12:29:22;23.60;1.00
1381;DHT22;684;48.342;10.096;2024-03-02T12:31:49;23.60;1.00
1381;DHT22;684;48.342;10.096;2024-03-02T12:34:18;23.80;1.00
1381;DHT22;684;48.342;10.096;2024-03-02T12:36:46;23.60;1.00
1381;DHT22;684;48.342;10.096;2024-03-02T12:39:15;23.30;1.00
1381;DHT22;684;48.342;10.096;2024-03-02T12:41:42;23.10;1.00
1381;DHT22;684;48.342;10.096;2024-03-02T12:44:10;23.10;1.00
1381;DHT22;684;48.342;10.096;2024-03-02T12:46:37;23.10;1.00
1381;DHT22;684;48.342;10.096;2024-03-02T12:49:08;22.60;1.00
1381;DHT22;684;48.342;10.096;2024-03-02T12:51:36;22.00;1.00
1381;DHT22;684;48.342;10.096;2024-03-02T12:54:03;21.40;1.00
1381;DHT22;684;48.342;10.096;2024-03-02T12:56:31;20.90;1.00
1381;DHT22;684;48.342;10.096;2024-03-02T12:58:59;20.50;1.00
1381;DHT22;684;48.342;10.096;2024-03-02T13:01:27;20.10;1.00
1381;DHT22;684;48.342;10.096;2024-03-02T13:03:54;19.80;1.00
1381;DHT22;684;48.342;10.096;2024-03-02T13:06:23;19.50;1.00
1381;DHT22;684;48.342;10.096;2024-03-02T13:08:50;19.10;1.00
1381;DHT22;684;48.342;10.096;2024-03-02T13:11:17;18.90;1.10
1381;DHT22;684;48.342;10.096;2024-03-02T13:13:43;18.60;1.80
1381;DHT22;684;48.342;10.096;2024-03-02T13:16:11;18.40;1.70
1381;DHT22;684;48.342;10.096;2024-03-02T13:18:40;18.20;2.40
1381;DHT22;684;48.342;10.096;2024-03-02T13:21:07;17.90;2.80
1381;DHT22;684;48.342;10.096;2024-03-02T13:23:34;17.70;3.20
1381;DHT22;684;48.342;10.096;2024-03-02T13:26:01;17.50;3.90
1381;DHT22;684;48.342;10.096;2024-03-02T13:28:28;17.40;4.10
1381;DHT22;684;48.342;10.096;2024-03-02T13:30:54;17.30;5.00
1381;DHT22;684;48.342;10.096;2024-03-02T13:33:21;17.10;5.60
1381;DHT22;684;48.342;10.096;2024-03-02T13:35:50;16.90;5.80
1381;DHT22;684;48.342;10.096;2024-03-02T13:38:17;16.80;6.00
1381;DHT22;684;48.342;10.096;2024-03-02T13:40:44;16.70;6.00
1381;DHT22;684;48.342;10.096;2024-03-02T13:43:11;16.50;6.60
1381;DHT22;684;48.342;10.096;2024-03-02T13:45:38;16.40;6.90
1381;DHT22;684;48.342;10.096;2024-03-02T13:48:05;16.20;7.00
1381;DHT22;684;48.342;10.096;2024-03-02T13:50:32;16.10;7.40
1381;DHT22;684;48.342;10.096;2024-03-02T13:53:00;16.00;7.30
1381;DHT22;684;48.342;10.096;2024-03-02T13:55:28;15.90;7.60
1381;DHT22;684;48.342;10.096;2024-03-02T13:57:55;15.80;8.00
1381;DHT22;684;48.342;10.096;2024-03-02T14:00:22;15.70;8.10
1381;DHT22;684;48.342;10.096;2024-03-02T14:02:49;15.60;8.50
1381;DHT22;684;48.342;10.096;2024-03-02T14:05:16;15.60;8.80
1381;DHT22;684;48.342;10.096;2024-03-02T14:07:45;15.50;8.90
1381;DHT22;684;48.342;10.096;2024-03-02T14:10:13;15.40;9.70
1381;DHT22;684;48.342;10.096;2024-03-02T14:12:41;15.40;10.20
1381;DHT22;684;48.342;10.096;2024-03-02T14:15:08;15.40;10.20
1381;DHT22;684;48.342;10.096;2024-03-02T14:17:35;15.30;9.10
1381;DHT22;684;48.342;10.096;2024-03-02T14:20:02;15.30;8.50
1381;DHT22;684;48.342;10.096;2024-03-02T14:22:30;15.10;8.90
1381;DHT22;684;48.342;10.096;2024-03-02T14:24:57;15.10;9.50
1381;DHT22;684;48.342;10.096;2024-03-02T14:27:25;15.10;9.70
1381;DHT22;684;48.342;10.096;2024-03-02T14:29:52;14.90;9.50
1381;DHT22;684;48.342;10.096;2024-03-02T14:32:18;14.80;7.40
1381;DHT22;684;48.342;10.096;2024-03-02T14:34:45;14.80;6.50
1381;DHT22;684;48.342;10.096;2024-03-02T14:37:13;14.80;6.30
1381;DHT22;684;48.342;10.096;2024-03-02T14:39:40;14.70;6.20
1381;DHT22;684;48.342;10.096;2024-03-02T14:42:07;14.70;6.70
1381;DHT22;684;48.342;10.096;2024-03-02T14:44:35;14.80;6.40
1381;DHT22;684;48.342;10.096;2024-03-02T14:47:02;14.70;5.80
1381;DHT22;684;48.342;10.096;2024-03-02T14:49:29;14.70;5.60
1381;DHT22;684;48.342;10.096;2024-03-02T14:51:56;14.70;6.20
1381;DHT22;684;48.342;10.096;2024-03-02T14:54:23;14.70;6.40
1381;DHT22;684;48.342;10.096;2024-03-02T14:56:50;14.70;6.40
1381;DHT22;684;48.342;10.096;2024-03-02T14:59:17;14.70;6.40
1381;DHT22;684;48.342;10.096;2024-03-02T15:01:46;14.70;6.10
1381;DHT22;684;48.342;10.096;2024-03-02T15:04:14;14.70;6.30
1381;DHT22;684;48.342;10.096;2024-03-02T15:06:42;14.80;6.20
1381;DHT22;684;48.342;10.096;2024-03-02T15:09:08;14.80;6.10
1381;DHT22;684;48.342;10.096;2024-03-02T15:11:35;14.70;5.60
1381;DHT22;684;48.342;10.096;2024-03-02T15:14:02;14.60;6.00
1381;DHT22;684;48.342;10.096;2024-03-02T15:16:29;14.50;6.20
1381;DHT22;684;48.342;10.096;2024-03-02T15:18:57;14.50;6.30
1381;DHT22;684;48.342;10.096;2024-03-02T15:21:24;14.50;6.80
1381;DHT22;684;48.342;10.096;2024-03-02T15:23:50;14.50;6.90
1381;DHT22;684;48.342;10.096;2024-03-02T15:26:17;14.50;7.00
1381;DHT22;684;48.342;10.096;2024-03-02T15:28:44;14.50;6.50
1381;DHT22;684;48.342;10.096;2024-03-02T15:31:11;14.50;6.70
1381;DHT22;684;48.342;10.096;2024-03-02T15:33:37;14.50;6.80
1381;DHT22;684;48.342;10.096;2024-03-02T15:36:07;14.40;6.90
1381;DHT22;684;48.342;10.096;2024-03-02T15:38:33;14.40;7.10
1381;DHT22;684;48.342;10.096;2024-03-02T15:41:03;14.40;7.40
1381;DHT22;684;48.342;10.096;2024-03-02T15:43:29;14.30;7.70
1381;DHT22;684;48.342;10.096;2024-03-02T15:45:57;14.20;8.20
1381;DHT22;684;48.342;10.096;2024-03-02T15:48:24;14.20;8.30
1381;DHT22;684;48.342;10.096;2024-03-02T15:50:50;14.10;8.40
1381;DHT22;684;48.342;10.096;2024-03-02T15:53:19;14.00;8.30
1381;DHT22;684;48.342;10.096;2024-03-02T15:55:46;13.90;8.70
1381;DHT22;684;48.342;10.096;2024-03-02T15:58:13;13.80;9.00
1381;DHT22;684;48.342;10.096;2024-03-02T16:00:39;13.70;9.20
1381;DHT22;684;48.342;10.096;2024-03-02T16:03:06;13.60;9.40
1381;DHT22;684;48.342;10.096;2024-03-02T16:05:33;13.50;9.30
1381;DHT22;684;48.342;10.096;2024-03-02T16:08:00;13.50;9.50
1381;DHT22;684;48.342;10.096;2024-03-02T16:10:28;13.30;9.60
1381;DHT22;684;48.342;10.096;2024-03-02T16:12:55;13.20;10.00
1381;DHT22;684;48.342;10.096;2024-03-02T16:15:25;13.10;10.30
1381;DHT22;684;48.342;10.096;2024-03-02T16:17:52;13.00;10.60
1381;DHT22;684;48.342;10.096;2024-03-02T16:20:19;13.00;10.70